Time;durP1;ratioP1;P1;durP2;ratioP2;P2;SDS_P1;SDS_P2;PMS_P1;PMS_P2;Temp;Humidity;BMP_temperature;BMP_pressure;BME280_temperature;BME280_humidity;BME280_pressure;Samples;Min_cycle;Max_cycle;Signal;HPM_P1;HPM_P2
2023/07/29 00:01:53;;;;;;;5.47;0.32;;;19.40;99.90;;;;;;5037705;28;20056;-73
2023/07/29 00:04:20;;;;;;;0.00;0.00;;;19.40;99.90;;;;;;5036088;28;20102;-74
2023/07/29 00:06:45;;;;;;;0.00;0.00;;;19.40;99.90;;;;;;5043510;28;20053;-74
2023/07/29 00:09:12;;;;;;;0.00;0.00;;;19.30;99.90;;;;;;5029354;28;20503;-74
2023/07/29 00:11:37;;;;;;;1.35;0.22;;;19.30;99.90;;;;;;5038482;28;20045;-74
2023/07/29 00:14:03;;;;;;;1.17;0.68;;;19.30;99.90;;;;;;5045055;28;20536;-74
2023/07/29 00:16:29;;;;;;;0.00;0.00;;;19.30;99.90;;;;;;5019693;28;20050;-74
2023/07/29 00:18:55;;;;;;;0.00;0.00;;;19.30;99.90;;;;;;5028354;28;20049;-74
2023/07/29 00:21:20;;;;;;;0.35;0.35;;;19.30;99.90;;;;;;5034751;28;20041;-74
2023/07/29 00:23:46;;;;;;;0.00;0.00;;;19.20;99.90;;;;;;5032403;28;20455;-74
2023/07/29 00:26:11;;;;;;;0.00;0.00;;;19.20;99.90;;;;;;5044358;28;20120;-74
2023/07/29 00:28:37;;;;;;;0.00;0.00;;;19.20;99.90;;;;;;5038206;28;20219;-74
2023/07/29 00:31:03;;;;;;;0.15;0.10;;;19.20;99.90;;;;;;5031037;28;20037;-74
2023/07/29 00:33:28;;;;;;;0.22;0.22;;;19.20;99.90;;;;;;5041944;28;20094;-74
2023/07/29 00:35:54;;;;;;;0.00;0.00;;;19.20;99.90;;;;;;5035131;28;20041;-74
2023/07/29 00:38:19;;;;;;;0.15;0.13;;;19.20;99.90;;;;;;5029975;28;20049;-74
2023/07/29 00:40:45;;;;;;;0.17;0.17;;;19.10;99.90;;;;;;5023525;28;20416;-73
2023/07/29 00:43:11;;;;;;;0.00;0.00;;;19.10;99.90;;;;;;5043519;28;20057;-73
2023/07/29 00:45:38;;;;;;;0.30;0.30;;;19.10;99.90;;;;;;5046418;28;20033;-73
2023/07/29 00:48:04;;;;;;;0.52;0.52;;;19.10;99.90;;;;;;5043048;28;20083;-73
2023/07/29 00:50:32;;;;;;;0.00;0.00;;;19.00;99.90;;;;;;5042942;28;20057;-73
2023/07/29 00:52:57;;;;;;;0.00;0.00;;;19.00;99.90;;;;;;5045206;28;20045;-73
2023/07/29 00:55:24;;;;;;;0.00;0.00;;;19.00;99.90;;;;;;5044681;28;20036;-74
2023/07/29 00:57:53;;;;;;;0.05;0.05;;;18.90;99.90;;;;;;5020684;28;20041;-73
2023/07/29 01:00:18;;;;;;;0.00;0.00;;;18.90;99.90;;;;;;5034795;28;20037;-73
2023/07/29 01:02:44;;;;;;;0.00;0.00;;;19.00;99.90;;;;;;5039386;28;21018;-73
2023/07/29 01:05:13;;;;;;;0.17;0.17;;;19.00;99.90;;;;;;5039903;28;20047;-73
2023/07/29 01:07:51;;;;;;;0.00;0.00;;;19.00;99.90;;;;;;5021683;28;20600;-73
2023/07/29 01:10:50;;;;;;;0.00;0.00;;;19.00;99.90;;;;;;5041948;28;20047;-73
2023/07/29 01:13:28;;;;;;;0.00;0.00;;;18.90;99.90;;;;;;5037783;28;20124;-72
2023/07/29 01:16:10;;;;;;;0.20;0.20;;;18.90;99.90;;;;;;5045654;28;20041;-72
2023/07/29 01:18:38;;;;;;;0.00;0.00;;;19.00;99.90;;;;;;5040208;28;20041;-72
2023/07/29 01:21:08;;;;;;;0.00;0.00;;;19.00;99.90;;;;;;5041228;28;20053;-72
2023/07/29 01:23:35;;;;;;;0.03;0.03;;;19.00;99.90;;;;;;5037004;28;20041;-72
2023/07/29 01:26:02;;;;;;;0.00;0.00;;;19.00;99.90;;;;;;5045516;28;20476;-72
2023/07/29 01:28:28;;;;;;;0.00;0.00;;;19.00;99.90;;;;;;5037908;28;20045;-72
2023/07/29 01:31:13;;;;;;;0.10;0.10;;;19.00;99.90;;;;;;5044950;28;20442;-72
2023/07/29 01:33:53;;;;;;;0.20;0.20;;;19.00;99.90;;;;;;5019261;28;20052;-72
2023/07/29 01:36:25;;;;;;;0.00;0.00;;;19.00;99.90;;;;;;5039086;28;20057;-72
2023/07/29 01:38:52;;;;;;;0.00;0.00;;;19.00;99.90;;;;;;5039904;28;20044;-72
2023/07/29 01:41:18;;;;;;;0.38;0.30;;;19.00;99.90;;;;;;5037998;28;20067;-72
2023/07/29 01:43:46;;;;;;;0.10;0.10;;;19.00;99.90;;;;;;5039963;28;20514;-72
2023/07/29 01:46:15;;;;;;;0.22;0.22;;;18.90;99.90;;;;;;5040747;28;20091;-72
2023/07/29 01:48:42;;;;;;;0.10;0.10;;;19.00;99.90;;;;;;5033014;28;20038;-71
2023/07/29 01:51:07;;;;;;;0.10;0.10;;;18.90;99.90;;;;;;5041829;28;20053;-72
2023/07/29 01:53:33;;;;;;;0.47;0.47;;;18.90;99.90;;;;;;5043334;28;20106;-72
2023/07/29 01:55:59;;;;;;;0.10;0.10;;;18.90;99.90;;;;;;5038445;28;20037;-72
2023/07/29 01:58:25;;;;;;;0.28;0.28;;;18.90;99.90;;;;;;5046894;28;20189;-72
2023/07/29 02:00:51;;;;;;;0.00;0.00;;;18.90;99.90;;;;;;5041017;28;20072;-72
2023/07/29 02:03:16;;;;;;;0.05;0.05;;;18.90;99.90;;;;;;5033626;28;20076;-72
2023/07/29 02:05:43;;;;;;;0.05;0.05;;;18.80;99.90;;;;;;5049097;28;20211;-72
2023/07/29 02:08:10;;;;;;;0.00;0.00;;;18.90;99.90;;;;;;5037645;28;20100;-72
2023/07/29 02:10:35;;;;;;;0.75;0.52;;;18.80;99.90;;;;;;5037312;28;20056;-72
2023/07/29 02:13:01;;;;;;;0.00;0.00;;;18.80;99.90;;;;;;5039850;28;20471;-72
2023/07/29 02:15:27;;;;;;;0.00;0.00;;;18.80;99.90;;;;;;5042824;28;20120;-72
2023/07/29 02:17:53;;;;;;;0.68;0.20;;;18.80;99.90;;;;;;5040257;28;20044;-72
2023/07/29 02:20:19;;;;;;;0.00;0.00;;;18.80;99.90;;;;;;5044164;28;20041;-72
2023/07/29 02:22:45;;;;;;;0.00;0.00;;;18.80;99.90;;;;;;5043070;28;20045;-72
2023/07/29 02:25:10;;;;;;;0.00;0.00;;;18.80;99.90;;;;;;5039286;28;20132;-72
2023/07/29 02:27:36;;;;;;;0.28;0.28;;;18.70;99.90;;;;;;5037817;28;20049;-72
2023/07/29 02:30:02;;;;;;;0.00;0.00;;;18.70;99.90;;;;;;5043179;28;20045;-72
2023/07/29 02:32:28;;;;;;;0.00;0.00;;;18.70;99.90;;;;;;5042354;28;20036;-72
2023/07/29 02:34:53;;;;;;;0.00;0.00;;;18.70;99.90;;;;;;5037432;28;20469;-72
2023/07/29 02:37:19;;;;;;;0.00;0.00;;;18.70;99.90;;;;;;5043842;28;20051;-72
2023/07/29 02:39:45;;;;;;;0.20;0.20;;;18.70;99.90;;;;;;5039359;28;20140;-72
2023/07/29 02:42:11;;;;;;;0.05;0.05;;;18.70;99.90;;;;;;5041190;28;20048;-72
2023/07/29 02:44:37;;;;;;;1.08;0.38;;;18.60;99.90;;;;;;5039948;28;20047;-71
2023/07/29 02:47:03;;;;;;;0.00;0.00;;;18.70;99.90;;;;;;5038373;28;20078;-72
2023/07/29 02:49:29;;;;;;;0.10;0.10;;;18.60;99.90;;;;;;5035288;28;20041;-72
2023/07/29 02:51:54;;;;;;;0.38;0.15;;;18.70;99.90;;;;;;5042832;28;20045;-72
2023/07/29 02:54:20;;;;;;;0.40;0.40;;;18.60;99.90;;;;;;5038680;28;20054;-72
2023/07/29 02:56:46;;;;;;;0.10;0.10;;;18.60;99.90;;;;;;5032607;28;20076;-72
2023/07/29 02:59:11;;;;;;;0.38;0.38;;;18.60;99.90;;;;;;5033159;28;20091;-72
2023/07/29 03:01:37;;;;;;;0.00;0.00;;;18.60;99.90;;;;;;5039483;28;20193;-72
2023/07/29 03:04:03;;;;;;;0.00;0.00;;;18.50;99.90;;;;;;5039649;28;20152;-72
2023/07/29 03:06:29;;;;;;;0.00;0.00;;;18.50;99.90;;;;;;5041865;28;20513;-72
2023/07/29 03:08:54;;;;;;;0.22;0.20;;;18.40;99.90;;;;;;5036915;28;20041;-72
2023/07/29 03:11:20;;;;;;;0.00;0.00;;;18.40;99.90;;;;;;5042699;28;20037;-72
2023/07/29 03:13:45;;;;;;;0.00;0.00;;;18.40;99.90;;;;;;5045315;28;20761;-72
2023/07/29 03:16:14;;;;;;;0.57;0.43;;;18.30;99.90;;;;;;5028237;28;20041;-72
2023/07/29 03:18:40;;;;;;;0.20;0.20;;;18.30;99.90;;;;;;5037064;28;20037;-72
2023/07/29 03:21:06;;;;;;;0.00;0.00;;;18.30;99.90;;;;;;5044011;28;20095;-72
2023/07/29 03:23:33;;;;;;;0.22;0.22;;;18.20;99.90;;;;;;5036289;28;20444;-72
2023/07/29 03:26:00;;;;;;;0.00;0.00;;;18.30;99.90;;;;;;5044701;28;20049;-72
2023/07/29 03:28:28;;;;;;;0.00;0.00;;;18.20;99.90;;;;;;5038397;28;20071;-71
2023/07/29 03:30:58;;;;;;;0.10;0.10;;;18.20;99.90;;;;;;5045526;28;20583;-72
2023/07/29 03:33:25;;;;;;;0.00;0.00;;;18.10;99.90;;;;;;5037109;28;20042;-72
2023/07/29 03:35:51;;;;;;;0.00;0.00;;;18.10;99.90;;;;;;5040881;28;20124;-72
2023/07/29 03:38:17;;;;;;;0.00;0.00;;;18.10;99.90;;;;;;5040849;28;20128;-72
2023/07/29 03:40:43;;;;;;;0.10;0.10;;;18.10;99.90;;;;;;5039548;28;20041;-72
2023/07/29 03:43:08;;;;;;;0.00;0.00;;;18.10;99.90;;;;;;5039038;28;20060;-71
2023/07/29 03:45:35;;;;;;;0.00;0.00;;;18.00;99.90;;;;;;5045999;28;20041;-72
2023/07/29 03:48:00;;;;;;;0.00;0.00;;;18.00;99.90;;;;;;5033050;28;20036;-72
2023/07/29 03:50:29;;;;;;;0.10;0.10;;;17.90;99.90;;;;;;5014938;28;20052;-72
2023/07/29 03:52:55;;;;;;;0.10;0.10;;;18.00;99.90;;;;;;5045767;28;20045;-72
2023/07/29 03:55:20;;;;;;;1.85;1.02;;;18.00;99.90;;;;;;5040597;28;20098;-72
2023/07/29 03:57:46;;;;;;;0.00;0.00;;;17.90;99.90;;;;;;5042882;28;20060;-72
2023/07/29 04:00:12;;;;;;;0.00;0.00;;;17.90;99.90;;;;;;5020205;28;20136;-72
2023/07/29 04:02:38;;;;;;;0.05;0.05;;;17.90;99.90;;;;;;5032542;28;20041;-72
2023/07/29 04:05:05;;;;;;;0.00;0.00;;;17.80;99.90;;;;;;5033228;28;20048;-72
2023/07/29 04:07:31;;;;;;;0.00;0.00;;;17.90;99.90;;;;;;5045858;28;20435;-72
2023/07/29 04:09:57;;;;;;;0.30;0.30;;;17.80;99.90;;;;;;5044485;28;20041;-72
2023/07/29 04:12:23;;;;;;;0.00;0.00;;;17.90;99.90;;;;;;5031428;28;20064;-72
2023/07/29 04:14:49;;;;;;;0.00;0.00;;;17.90;99.90;;;;;;5043427;28;20041;-72
2023/07/29 04:17:14;;;;;;;0.00;0.00;;;17.80;99.90;;;;;;5038672;28;20365;-72
2023/07/29 04:19:40;;;;;;;0.00;0.00;;;17.80;99.90;;;;;;5041098;28;20040;-72
2023/07/29 04:22:06;;;;;;;0.00;0.00;;;17.80;99.90;;;;;;5041781;28;20036;-72
2023/07/29 04:24:31;;;;;;;0.00;0.00;;;17.80;99.90;;;;;;5041433;28;20041;-72
2023/07/29 04:26:57;;;;;;;0.20;0.10;;;17.80;99.90;;;;;;5037931;28;20041;-72
2023/07/29 04:29:23;;;;;;;0.05;0.05;;;17.80;99.90;;;;;;5045559;28;20122;-72
2023/07/29 04:31:52;;;;;;;0.00;0.00;;;17.80;99.90;;;;;;5034970;28;20052;-72
2023/07/29 04:34:19;;;;;;;0.00;0.00;;;17.80;99.90;;;;;;5044222;28;20042;-72
2023/07/29 04:36:45;;;;;;;0.00;0.00;;;17.80;99.90;;;;;;5035920;28;20194;-72
2023/07/29 04:39:11;;;;;;;0.13;0.13;;;17.80;99.90;;;;;;5026585;28;20516;-72
2023/07/29 04:41:36;;;;;;;0.00;0.00;;;17.80;99.90;;;;;;5031767;28;20033;-72
2023/07/29 04:44:02;;;;;;;0.00;0.00;;;17.80;99.90;;;;;;5036907;28;20041;-72
2023/07/29 04:46:27;;;;;;;0.00;0.00;;;17.80;99.90;;;;;;5039985;28;20099;-72
2023/07/29 04:48:53;;;;;;;0.00;0.00;;;17.90;99.90;;;;;;5045483;28;20044;-72
2023/07/29 04:51:19;;;;;;;0.00;0.00;;;17.90;99.90;;;;;;5047083;28;20060;-72
2023/07/29 04:53:44;;;;;;;0.00;0.00;;;17.90;99.90;;;;;;5039677;28;20041;-72
2023/07/29 04:56:10;;;;;;;0.00;0.00;;;17.90;99.90;;;;;;5030882;28;20052;-72
2023/07/29 04:58:35;;;;;;;0.00;0.00;;;17.90;99.90;;;;;;5044255;28;20095;-72
2023/07/29 05:01:02;;;;;;;0.00;0.00;;;17.90;99.90;;;;;;5026913;28;20041;-72
2023/07/29 05:03:28;;;;;;;0.20;0.20;;;17.90;99.90;;;;;;5037192;28;20559;-72
2023/07/29 05:05:55;;;;;;;0.00;0.00;;;17.90;99.90;;;;;;5039873;28;20037;-72
2023/07/29 05:08:21;;;;;;;0.65;0.55;;;18.00;99.90;;;;;;5042515;28;20571;-72
2023/07/29 05:10:50;;;;;;;0.55;0.55;;;18.00;99.90;;;;;;5039530;28;20116;-72
2023/07/29 05:13:16;;;;;;;0.00;0.00;;;18.00;99.90;;;;;;5038852;28;20063;-72
2023/07/29 05:15:42;;;;;;;0.00;0.00;;;18.00;99.90;;;;;;5041237;28;20069;-72
2023/07/29 05:18:08;;;;;;;0.00;0.00;;;18.00;99.90;;;;;;5032788;28;20076;-72
2023/07/29 05:20:33;;;;;;;0.00;0.00;;;18.00;99.90;;;;;;5038674;28;20106;-71
2023/07/29 05:22:59;;;;;;;0.00;0.00;;;18.00;99.90;;;;;;5034365;28;20042;-72
2023/07/29 05:25:24;;;;;;;0.00;0.00;;;18.00;99.90;;;;;;5047014;28;20048;-72
2023/07/29 05:27:50;;;;;;;0.00;0.00;;;18.00;99.90;;;;;;5045161;28;20047;-71
2023/07/29 05:30:16;;;;;;;0.03;0.03;;;18.10;99.90;;;;;;5040577;28;20033;-72
2023/07/29 05:32:41;;;;;;;0.00;0.00;;;18.10;99.90;;;;;;5045166;28;20541;-72
2023/07/29 05:35:07;;;;;;;0.20;0.20;;;18.10;99.90;;;;;;5018162;28;20056;-72
2023/07/29 05:37:33;;;;;;;0.20;0.20;;;18.10;99.90;;;;;;5034401;28;20045;-72
2023/07/29 05:39:58;;;;;;;0.00;0.00;;;18.10;99.90;;;;;;5037593;28;20034;-72
2023/07/29 05:42:24;;;;;;;0.00;0.00;;;18.10;99.90;;;;;;5047117;28;20049;-71
2023/07/29 05:44:50;;;;;;;0.00;0.00;;;18.10;99.90;;;;;;5039261;28;20041;-72
2023/07/29 05:47:15;;;;;;;0.00;0.00;;;18.10;99.90;;;;;;5041802;28;20056;-72
2023/07/29 05:49:41;;;;;;;0.17;0.17;;;18.10;99.90;;;;;;5042560;28;20041;-72
2023/07/29 05:52:07;;;;;;;0.20;0.20;;;18.20;99.90;;;;;;5038700;28;20049;-71
2023/07/29 05:54:33;;;;;;;0.43;0.28;;;18.20;99.90;;;;;;5024928;28;20698;-72
2023/07/29 05:56:58;;;;;;;0.10;0.10;;;18.20;99.90;;;;;;5037848;28;20041;-71
2023/07/29 05:59:24;;;;;;;0.55;0.55;;;18.30;99.90;;;;;;5042557;28;20056;-72
2023/07/29 06:01:50;;;;;;;0.00;0.00;;;18.30;99.90;;;;;;5031343;28;20061;-71
2023/07/29 06:04:15;;;;;;;0.45;0.45;;;18.30;99.90;;;;;;5034186;28;20053;-72
2023/07/29 06:06:41;;;;;;;0.20;0.20;;;18.40;99.90;;;;;;5030993;28;20084;-72
2023/07/29 06:09:07;;;;;;;0.60;0.10;;;18.40;99.90;;;;;;5046658;28;20045;-72
2023/07/29 06:11:32;;;;;;;0.00;0.00;;;18.50;99.90;;;;;;5040798;28;20048;-72
2023/07/29 06:13:58;;;;;;;0.00;0.00;;;18.50;99.90;;;;;;5025510;28;20047;-71
2023/07/29 06:16:23;;;;;;;0.00;0.00;;;18.60;99.90;;;;;;5041502;28;20484;-73
2023/07/29 06:18:49;;;;;;;0.00;0.00;;;18.60;99.90;;;;;;5038435;28;20029;-72
2023/07/29 06:21:17;;;;;;;0.00;0.00;;;18.70;99.90;;;;;;5018846;28;20221;-72
2023/07/29 06:23:46;;;;;;;0.10;0.10;;;18.70;99.90;;;;;;5034949;28;20046;-73
2023/07/29 06:26:11;;;;;;;1.45;1.00;;;18.90;99.90;;;;;;5044835;28;20077;-72
2023/07/29 06:28:37;;;;;;;0.00;0.00;;;18.90;99.90;;;;;;5033310;28;20163;-73
2023/07/29 06:31:02;;;;;;;0.00;0.00;;;19.00;99.90;;;;;;5039085;28;20053;-72
2023/07/29 06:33:28;;;;;;;0.17;0.17;;;18.90;99.90;;;;;;5022028;28;20485;-72
2023/07/29 06:35:54;;;;;;;0.03;0.03;;;19.00;99.90;;;;;;5043160;28;20041;-72
2023/07/29 06:38:21;;;;;;;0.10;0.10;;;18.90;99.90;;;;;;5029598;28;20116;-73
2023/07/29 06:40:50;;;;;;;0.65;0.28;;;18.90;99.90;;;;;;5040215;28;20052;-73
2023/07/29 06:43:16;;;;;;;0.00;0.00;;;18.90;99.90;;;;;;5035870;28;20464;-73
2023/07/29 06:45:42;;;;;;;0.15;0.13;;;18.90;99.90;;;;;;5038784;28;20124;-73
2023/07/29 06:48:08;;;;;;;0.00;0.00;;;18.90;99.90;;;;;;5040594;28;20041;-73
2023/07/29 06:50:33;;;;;;;0.17;0.17;;;18.90;99.90;;;;;;5039606;28;20508;-73
2023/07/29 06:52:59;;;;;;;0.00;0.00;;;18.90;99.90;;;;;;5040505;28;20052;-73
2023/07/29 06:55:24;;;;;;;0.10;0.10;;;18.90;99.90;;;;;;5040698;28;20056;-72
2023/07/29 06:57:50;;;;;;;0.17;0.17;;;19.00;99.90;;;;;;5037317;28;20034;-72
2023/07/29 07:00:16;;;;;;;0.00;0.00;;;18.90;99.90;;;;;;5036229;28;20548;-72
2023/07/29 07:02:41;;;;;;;0.00;0.00;;;18.90;99.90;;;;;;5021709;28;20132;-74
2023/07/29 07:05:07;;;;;;;0.00;0.00;;;18.90;99.90;;;;;;5043574;28;20041;-72
2023/07/29 07:07:33;;;;;;;0.40;0.40;;;18.90;99.90;;;;;;5023420;28;20373;-71
2023/07/29 07:09:59;;;;;;;0.00;0.00;;;18.90;99.90;;;;;;5032080;28;20053;-70
2023/07/29 07:12:24;;;;;;;0.10;0.10;;;19.00;99.90;;;;;;5034074;28;20473;-70
2023/07/29 07:14:50;;;;;;;0.00;0.00;;;19.00;99.90;;;;;;5019801;28;20056;-74
2023/07/29 07:17:16;;;;;;;0.00;0.00;;;19.00;99.90;;;;;;5020742;28;20037;-72
2023/07/29 07:19:41;;;;;;;0.00;0.00;;;19.10;99.90;;;;;;5033907;28;20053;-72
2023/07/29 07:22:07;;;;;;;5.18;0.55;;;19.20;99.90;;;;;;5038926;28;20052;-72
2023/07/29 07:24:32;;;;;;;0.75;0.40;;;19.30;99.90;;;;;;5036300;28;20182;-72
2023/07/29 07:26:58;;;;;;;0.00;0.00;;;19.30;99.90;;;;;;5022396;28;20412;-74
2023/07/29 07:29:24;;;;;;;0.00;0.00;;;19.30;99.90;;;;;;5035656;28;20068;-74
2023/07/29 07:31:54;;;;;;;1.17;1.08;;;19.30;99.90;;;;;;5023317;28;20056;-72
2023/07/29 07:34:21;;;;;;;0.00;0.00;;;19.30;99.90;;;;;;5046762;28;20120;-75
2023/07/29 07:36:46;;;;;;;7.13;0.45;;;19.30;99.90;;;;;;5038166;28;20515;-74
2023/07/29 07:39:12;;;;;;;0.10;0.10;;;19.30;99.90;;;;;;5036453;28;20053;-74
2023/07/29 07:41:38;;;;;;;0.00;0.00;;;19.20;99.90;;;;;;5037038;28;20037;-72
2023/07/29 07:44:04;;;;;;;1.27;0.80;;;19.40;99.90;;;;;;5043077;28;20459;-72
2023/07/29 07:46:29;;;;;;;0.30;0.30;;;19.50;99.90;;;;;;5036975;28;20041;-72
2023/07/29 07:48:55;;;;;;;0.00;0.00;;;19.60;99.90;;;;;;5041272;28;20488;-73
2023/07/29 07:51:21;;;;;;;0.15;0.15;;;19.60;99.90;;;;;;5015413;28;20489;-73
2023/07/29 07:53:46;;;;;;;0.20;0.20;;;19.50;99.90;;;;;;5034034;28;20048;-73
2023/07/29 07:56:12;;;;;;;0.32;0.30;;;19.60;99.90;;;;;;5038696;28;20049;-74
2023/07/29 07:58:38;;;;;;;0.00;0.00;;;19.60;99.90;;;;;;5044268;28;20110;-72
2023/07/29 08:01:05;;;;;;;0.00;0.00;;;19.70;99.90;;;;;;5023076;28;20124;-71
2023/07/29 08:03:31;;;;;;;0.00;0.00;;;19.70;99.90;;;;;;5042059;28;20049;-71
2023/07/29 08:05:56;;;;;;;0.00;0.00;;;19.70;99.90;;;;;;5043123;28;20055;-72
2023/07/29 08:08:22;;;;;;;20.17;0.95;;;19.80;99.90;;;;;;5035061;28;20084;-70
2023/07/29 08:10:48;;;;;;;0.32;0.20;;;19.80;99.90;;;;;;5036619;28;20040;-73
2023/07/29 08:13:13;;;;;;;0.00;0.00;;;19.80;99.90;;;;;;5037324;28;20080;-72
2023/07/29 08:15:40;;;;;;;0.22;0.22;;;19.80;99.90;;;;;;5038491;28;20057;-72
2023/07/29 08:18:06;;;;;;;3.35;2.85;;;19.70;99.90;;;;;;5035179;28;20052;-73
2023/07/29 08:20:32;;;;;;;0.00;0.00;;;19.70;99.90;;;;;;5035170;28;20033;-73
2023/07/29 08:22:58;;;;;;;0.10;0.10;;;19.60;99.90;;;;;;5032870;28;20041;-74
2023/07/29 08:25:24;;;;;;;0.05;0.05;;;19.60;99.90;;;;;;5034230;28;20129;-74
2023/07/29 08:27:49;;;;;;;0.00;0.00;;;19.60;99.90;;;;;;5041753;28;20041;-73
2023/07/29 08:30:16;;;;;;;0.00;0.00;;;19.70;99.90;;;;;;5041310;28;20049;-73
2023/07/29 08:32:41;;;;;;;0.00;0.00;;;19.70;99.90;;;;;;5038924;28;20037;-73
2023/07/29 08:35:07;;;;;;;0.57;0.32;;;19.80;99.90;;;;;;5037239;28;20553;-73
2023/07/29 08:37:33;;;;;;;0.70;0.70;;;19.90;99.90;;;;;;5026695;28;20079;-73
2023/07/29 08:39:59;;;;;;;0.00;0.00;;;19.90;99.90;;;;;;5040020;28;20040;-73
2023/07/29 08:42:29;;;;;;;0.00;0.00;;;20.10;99.90;;;;;;5025094;28;20049;-72
2023/07/29 08:44:56;;;;;;;0.28;0.28;;;20.10;99.90;;;;;;5027457;28;20045;-74
2023/07/29 08:47:21;;;;;;;0.00;0.00;;;20.10;99.90;;;;;;5037648;28;20039;-74
2023/07/29 08:49:48;;;;;;;0.55;0.55;;;20.00;99.90;;;;;;5037037;28;20476;-74
2023/07/29 08:52:15;;;;;;;0.00;0.00;;;20.00;99.90;;;;;;5035295;28;20053;-75
2023/07/29 08:54:41;;;;;;;0.00;0.00;;;20.00;99.90;;;;;;5033535;28;20056;-74
2023/07/29 08:57:07;;;;;;;0.28;0.28;;;20.10;99.90;;;;;;5037969;28;20050;-75
2023/07/29 08:59:33;;;;;;;2.17;0.90;;;20.00;99.90;;;;;;5041403;28;20049;-75
2023/07/29 09:01:59;;;;;;;0.15;0.15;;;20.00;99.90;;;;;;5042209;28;20090;-72
2023/07/29 09:04:25;;;;;;;0.00;0.00;;;20.00;99.90;;;;;;5046586;28;20041;-74
2023/07/29 09:06:51;;;;;;;0.00;0.00;;;20.00;99.90;;;;;;5043538;28;20099;-75
2023/07/29 09:09:17;;;;;;;0.00;0.00;;;20.10;99.90;;;;;;5033028;28;20099;-74
2023/07/29 09:11:44;;;;;;;0.00;0.00;;;20.20;99.90;;;;;;5041698;28;20045;-73
2023/07/29 09:14:10;;;;;;;0.05;0.05;;;20.30;99.90;;;;;;5022900;28;20044;-73
2023/07/29 09:16:36;;;;;;;0.03;0.03;;;20.20;99.90;;;;;;5037935;28;20095;-73
2023/07/29 09:19:03;;;;;;;0.10;0.10;;;20.20;99.90;;;;;;5039434;28;20476;-73
2023/07/29 09:21:29;;;;;;;0.00;0.00;;;20.20;99.90;;;;;;5036602;28;20550;-73
2023/07/29 09:23:55;;;;;;;0.00;0.00;;;20.30;99.90;;;;;;5048947;28;20045;-73
2023/07/29 09:26:27;;;;;;;3.47;1.08;;;20.30;99.90;;;;;;5041342;28;20408;-73
2023/07/29 09:28:55;;;;;;;0.05;0.03;;;20.30;99.90;;;;;;5042986;28;20073;-73
2023/07/29 09:31:22;;;;;;;0.20;0.10;;;20.40;99.90;;;;;;5024298;28;20071;-74
2023/07/29 09:33:48;;;;;;;0.00;0.00;;;20.50;99.90;;;;;;5020324;28;20049;-73
2023/07/29 09:36:14;;;;;;;1.42;0.35;;;20.60;99.90;;;;;;5041266;28;20044;-73
2023/07/29 09:38:40;;;;;;;0.10;0.10;;;20.60;99.90;;;;;;5038851;28;20041;-73
2023/07/29 09:41:06;;;;;;;0.00;0.00;;;20.60;99.90;;;;;;5037555;28;20053;-73
2023/07/29 09:43:33;;;;;;;0.05;0.05;;;20.60;99.90;;;;;;5042490;28;20047;-73
2023/07/29 09:46:04;;;;;;;0.00;0.00;;;20.60;99.90;;;;;;5039948;28;20091;-73
2023/07/29 09:48:35;;;;;;;0.00;0.00;;;20.60;99.90;;;;;;5040302;28;20048;-73
2023/07/29 09:51:10;;;;;;;0.10;0.10;;;20.70;99.90;;;;;;5037137;28;20493;-73
2023/07/29 09:53:42;;;;;;;0.00;0.00;;;20.90;99.90;;;;;;5023870;28;20544;-73
2023/07/29 09:56:08;;;;;;;0.00;0.00;;;21.20;99.90;;;;;;5026606;28;20089;-73
2023/07/29 09:58:35;;;;;;;2.72;0.90;;;21.30;99.90;;;;;;5043640;28;20071;-73
2023/07/29 10:01:01;;;;;;;0.00;0.00;;;21.80;99.90;;;;;;5023823;28;20658;-73
2023/07/29 10:03:27;;;;;;;0.00;0.00;;;22.00;99.90;;;;;;5025864;28;20112;-73
2023/07/29 10:05:53;;;;;;;0.20;0.20;;;22.00;99.90;;;;;;5035399;28;20484;-73
2023/07/29 10:08:19;;;;;;;0.00;0.00;;;22.00;99.90;;;;;;5033467;28;20044;-72
2023/07/29 10:10:45;;;;;;;0.05;0.05;;;22.20;99.90;;;;;;5033987;28;20604;-73
2023/07/29 10:13:12;;;;;;;0.00;0.00;;;22.10;99.90;;;;;;5020287;28;20132;-73
2023/07/29 10:15:39;;;;;;;0.00;0.00;;;22.10;99.90;;;;;;5027525;28;20097;-72
2023/07/29 10:18:05;;;;;;;0.10;0.10;;;22.20;99.90;;;;;;5040530;28;20045;-73
2023/07/29 10:20:32;;;;;;;0.00;0.00;;;22.40;99.90;;;;;;5025278;28;20503;-72
2023/07/29 10:23:00;;;;;;;0.00;0.00;;;22.30;99.90;;;;;;5032479;28;20041;-72
2023/07/29 10:25:37;;;;;;;0.00;0.00;;;22.40;99.90;;;;;;5039558;28;20045;-71
2023/07/29 10:28:07;;;;;;;0.10;0.10;;;22.30;99.90;;;;;;5038563;28;20052;-71
2023/07/29 10:30:33;;;;;;;0.00;0.00;;;22.20;99.90;;;;;;5040129;28;20093;-73
2023/07/29 10:33:04;;;;;;;0.15;0.15;;;22.10;99.90;;;;;;5021229;28;20037;-73
2023/07/29 10:35:32;;;;;;;0.00;0.00;;;22.20;99.90;;;;;;5044194;28;20363;-73
2023/07/29 10:37:57;;;;;;;0.00;0.00;;;22.00;99.90;;;;;;5044708;28;20044;-73
2023/07/29 10:40:23;;;;;;;0.00;0.00;;;22.00;99.90;;;;;;5037411;28;20044;-73
2023/07/29 10:43:31;;;;;;;0.88;0.80;;;22.10;99.90;;;;;;5045033;28;20079;-72
2023/07/29 10:46:15;;;;;;;0.00;0.00;;;22.40;99.90;;;;;;5022984;28;20041;-72
2023/07/29 10:48:41;;;;;;;;;;;22.20;99.90;;;;;;5036149;28;20041;-73
2023/07/29 10:51:25;;;;;;;0.57;0.57;;;22.00;99.90;;;;;;5040240;28;19928;-72
2023/07/29 10:54:02;;;;;;;0.00;0.00;;;21.80;99.90;;;;;;5040464;28;20411;-73
2023/07/29 10:56:30;;;;;;;0.00;0.00;;;21.70;99.90;;;;;;5015066;28;20080;-74
2023/07/29 10:58:57;;;;;;;0.63;0.55;;;21.50;99.90;;;;;;5040093;28;20076;-74
2023/07/29 11:01:28;;;;;;;1.48;0.52;;;21.40;99.90;;;;;;5036175;28;20053;-73
2023/07/29 11:04:26;;;;;;;2.10;1.45;;;21.30;99.90;;;;;;5035727;28;20061;-74
2023/07/29 11:07:04;;;;;;;0.00;0.00;;;21.00;99.90;;;;;;5042997;28;20045;-74
2023/07/29 11:09:52;;;;;;;1.30;1.20;;;20.80;99.90;;;;;;5020662;28;20190;-73
2023/07/29 11:12:43;;;;;;;0.32;0.32;;;20.60;99.90;;;;;;5026418;28;20087;-74
2023/07/29 11:15:23;;;;;;;0.00;0.00;;;20.40;99.90;;;;;;5037403;28;20133;-74
2023/07/29 11:17:55;;;;;;;0.00;0.00;;;20.40;99.90;;;;;;5039766;28;20048;-73
2023/07/29 11:20:24;;;;;;;0.17;0.17;;;20.50;99.90;;;;;;5028376;28;20041;-74
2023/07/29 11:22:50;;;;;;;0.25;0.25;;;20.60;99.90;;;;;;5020213;28;20041;-74
2023/07/29 11:25:17;;;;;;;0.00;0.00;;;20.70;99.90;;;;;;5043063;28;20052;-73
2023/07/29 11:27:43;;;;;;;0.20;0.20;;;21.00;99.90;;;;;;5016529;28;20496;-73
2023/07/29 11:30:14;;;;;;;0.00;0.00;;;21.30;99.90;;;;;;5036426;28;20037;-73
2023/07/29 11:32:42;;;;;;;0.08;0.08;;;21.70;99.90;;;;;;5038134;28;20077;-72
2023/07/29 11:35:13;;;;;;;0.00;0.00;;;21.90;99.90;;;;;;5044191;28;20547;-73
2023/07/29 11:37:39;;;;;;;0.00;0.00;;;21.90;99.90;;;;;;5034744;28;20057;-73
2023/07/29 11:40:06;;;;;;;0.00;0.00;;;22.20;99.90;;;;;;5021784;28;20124;-73
2023/07/29 11:42:33;;;;;;;0.00;0.00;;;22.60;99.90;;;;;;5035753;28;20049;-73
2023/07/29 11:45:00;;;;;;;0.00;0.00;;;23.10;99.90;;;;;;5019310;28;20037;-73
2023/07/29 11:47:26;;;;;;;0.00;0.00;;;23.50;99.90;;;;;;5036947;28;20287;-73
2023/07/29 11:49:52;;;;;;;0.00;0.00;;;23.40;99.90;;;;;;5042261;28;20041;-73
2023/07/29 11:52:19;;;;;;;0.40;0.40;;;22.90;99.90;;;;;;5033670;28;20131;-73
2023/07/29 11:54:47;;;;;;;0.00;0.00;;;22.50;99.90;;;;;;5043681;28;20048;-73
2023/07/29 11:57:14;;;;;;;0.00;0.00;;;22.20;99.90;;;;;;5037437;28;20053;-73
2023/07/29 11:59:41;;;;;;;0.10;0.10;;;22.00;99.90;;;;;;5038063;28;20116;-73
2023/07/29 12:02:13;;;;;;;0.00;0.00;;;21.90;99.90;;;;;;5025269;28;20131;-73
2023/07/29 12:04:40;;;;;;;0.30;0.30;;;21.80;99.90;;;;;;5025358;28;20092;-73
2023/07/29 12:07:07;;;;;;;0.00;0.00;;;21.60;99.90;;;;;;5040682;28;20045;-72
2023/07/29 12:09:34;;;;;;;0.00;0.00;;;21.50;99.90;;;;;;5019502;28;20052;-72
2023/07/29 12:12:00;;;;;;;0.00;0.00;;;21.40;99.90;;;;;;5020332;28;20053;-73
2023/07/29 12:14:28;;;;;;;0.00;0.00;;;21.40;99.90;;;;;;5041916;28;20045;-72
2023/07/29 12:16:54;;;;;;;0.00;0.00;;;21.50;99.90;;;;;;5028642;28;20068;-73
2023/07/29 12:19:21;;;;;;;0.00;0.00;;;21.30;99.90;;;;;;5042035;28;20483;-73
2023/07/29 12:21:47;;;;;;;0.00;0.00;;;21.40;99.90;;;;;;5041658;28;20125;-71
2023/07/29 12:24:14;;;;;;;0.00;0.00;;;21.40;99.90;;;;;;5042125;28;20048;-73
2023/07/29 12:26:41;;;;;;;0.82;0.63;;;21.50;99.90;;;;;;5034378;28;20060;-74
2023/07/29 12:29:14;;;;;;;0.22;0.22;;;21.70;99.90;;;;;;5030619;28;20077;-73
2023/07/29 12:31:39;;;;;;;0.00;0.00;;;21.80;99.90;;;;;;5039891;28;20048;-74
2023/07/29 12:34:05;;;;;;;0.00;0.00;;;21.90;99.90;;;;;;5041967;28;20049;-73
2023/07/29 12:36:47;;;;;;;0.00;0.00;;;22.10;99.90;;;;;;5041689;28;20506;-74
2023/07/29 12:39:31;;;;;;;0.32;0.30;;;22.20;99.90;;;;;;5043775;28;20049;-73
2023/07/29 12:41:58;;;;;;;;;;;22.30;99.90;;;;;;5046342;28;20049;-75
2023/07/29 12:44:25;;;;;;;0.00;0.00;;;22.80;99.90;;;;;;5041358;28;19951;-73
2023/07/29 12:46:50;;;;;;;0.00;0.00;;;22.60;99.90;;;;;;5046174;28;20122;-73
2023/07/29 12:49:17;;;;;;;0.00;0.00;;;22.90;99.90;;;;;;5041436;28;20385;-73